createdAt,value
2023-11-13T00:00:00.113Z,23.75
2023-11-13T00:02:27.858Z,19.50
2023-11-13T00:04:55.289Z,21.75
2023-11-13T00:07:22.734Z,20.75
2023-11-13T00:09:50.559Z,21.25
2023-11-13T00:12:17.673Z,17.50
2023-11-13T00:14:44.841Z,19.00
2023-11-13T00:17:11.832Z,11.67
2023-11-13T00:19:39.064Z,15.25
2023-11-13T00:22:06.740Z,16.67
2023-11-13T00:24:33.827Z,15.00
2023-11-13T00:27:00.773Z,16.75
2023-11-13T00:29:27.644Z,13.67
2023-11-13T00:31:54.461Z,15.25
2023-11-13T00:34:21.537Z,19.00
2023-11-13T00:36:52.226Z,18.75
2023-11-13T00:39:19.607Z,15.25
2023-11-13T00:41:46.821Z,15.25
2023-11-13T00:44:13.908Z,16.67
2023-11-13T00:46:40.779Z,18.25
2023-11-13T00:49:07.934Z,21.00
2023-11-13T00:51:34.820Z,18.00
2023-11-13T00:54:01.605Z,12.00
2023-11-13T00:56:28.616Z,15.75
2023-11-13T00:58:55.689Z,13.00
2023-11-13T01:01:22.705Z,14.00
2023-11-13T01:03:49.684Z,10.00
2023-11-13T01:06:17.534Z,10.67
2023-11-13T01:08:45.193Z,9.67
2023-11-13T01:11:15.406Z,14.75
2023-11-13T01:13:45.219Z,13.50
2023-11-13T01:16:12.314Z,13.50
2023-11-13T01:18:39.452Z,9.75
2023-11-13T01:21:06.288Z,12.00
2023-11-13T01:23:33.122Z,13.00
2023-11-13T01:25:59.968Z,15.25
2023-11-13T01:28:26.996Z,12.75
2023-11-13T01:30:54.104Z,12.00
2023-11-13T01:33:23.335Z,13.50
2023-11-13T01:35:50.500Z,9.25
2023-11-13T01:38:17.380Z,10.00
2023-11-13T01:40:44.395Z,13.50
2023-11-13T01:43:22.467Z,10.00
2023-11-13T01:45:57.490Z,12.00
2023-11-13T01:48:25.202Z,11.75
2023-11-13T01:50:56.907Z,11.75
2023-11-13T01:53:26.546Z,15.75
2023-11-13T01:55:56.815Z,10.00
2023-11-13T01:58:25.648Z,12.75
2023-11-13T02:00:54.102Z,13.00
2023-11-13T02:03:22.286Z,10.75
2023-11-13T02:05:50.720Z,12.00
2023-11-13T02:08:20.151Z,13.50
2023-11-13T02:10:47.720Z,13.67
2023-11-13T02:13:15.147Z,10.00
2023-11-13T02:15:43.105Z,12.00
2023-11-13T02:18:10.522Z,14.00
2023-11-13T02:20:37.725Z,12.67
2023-11-13T02:23:10.359Z,12.33
2023-11-13T02:25:43.050Z,15.00
2023-11-13T02:28:11.232Z,10.67
2023-11-13T02:30:39.504Z,12.00
2023-11-13T02:33:08.811Z,8.33
2023-11-13T02:35:35.702Z,12.67
2023-11-13T02:38:02.603Z,12.00
2023-11-13T02:40:29.713Z,10.00
2023-11-13T02:43:01.245Z,10.67
2023-11-13T02:45:30.960Z,9.00
2023-11-13T02:47:58.217Z,10.00
2023-11-13T02:50:30.256Z,12.67
2023-11-13T02:52:57.770Z,11.33
2023-11-13T02:55:24.756Z,8.33
2023-11-13T02:57:53.506Z,9.33
2023-11-13T03:00:21.044Z,12.67
2023-11-13T03:02:48.603Z,14.00
2023-11-13T03:05:18.079Z,14.33
2023-11-13T03:07:45.697Z,12.33
2023-11-13T03:10:12.653Z,13.67
2023-11-13T03:12:41.296Z,13.75
2023-11-13T03:15:08.867Z,14.25
2023-11-13T03:17:35.776Z,9.00
2023-11-13T03:20:08.047Z,14.50
2023-11-13T03:22:35.451Z,11.33
2023-11-13T03:25:04.240Z,14.25
2023-11-13T03:27:31.337Z,9.67
2023-11-13T03:29:59.468Z,15.33
2023-11-13T03:32:27.095Z,18.00
2023-11-13T03:34:54.703Z,14.00
2023-11-13T03:37:21.596Z,17.33
2023-11-13T03:39:49.096Z,17.33
2023-11-13T03:42:16.227Z,15.50
2023-11-13T03:44:43.466Z,15.00
2023-11-13T03:47:10.416Z,14.33
2023-11-13T03:49:37.318Z,16.00
2023-11-13T03:52:04.459Z,19.67
2023-11-13T03:54:31.494Z,19.00
2023-11-13T03:57:00.243Z,20.50
2023-11-13T03:59:27.030Z,18.75
2023-11-13T04:01:55.222Z,21.50
2023-11-13T04:04:22.168Z,7.75
2023-11-13T04:06:50.740Z,14.75
2023-11-13T04:09:17.750Z,15.50
2023-11-13T04:11:46.604Z,14.50
2023-11-13T04:14:13.710Z,15.50
2023-11-13T04:16:40.611Z,18.50
2023-11-13T04:19:07.670Z,21.00
2023-11-13T04:21:34.535Z,20.25
2023-11-13T04:24:01.517Z,17.50
2023-11-13T04:26:28.833Z,15.25
2023-11-13T04:28:55.860Z,11.75
2023-11-13T04:31:22.767Z,4.00
2023-11-13T04:33:50.740Z,12.00
2023-11-13T04:36:17.598Z,14.50
2023-11-13T04:38:44.721Z,12.00
2023-11-13T04:41:12.133Z,8.25
2023-11-13T04:43:39.532Z,12.25
2023-11-13T04:46:07.818Z,12.00
2023-11-13T04:48:34.946Z,12.00
2023-11-13T04:51:01.675Z,12.75
2023-11-13T04:53:28.741Z,13.00
2023-11-13T04:55:55.484Z,11.00
2023-11-13T04:58:22.838Z,3.00
2023-11-13T05:00:50.295Z,18.75
2023-11-13T05:03:17.305Z,14.50
2023-11-13T05:05:44.165Z,17.00
2023-11-13T05:08:11.231Z,15.50
2023-11-13T05:10:38.673Z,9.50
2023-11-13T05:13:05.546Z,10.00
2023-11-13T05:15:32.709Z,13.00
2023-11-13T05:17:59.618Z,14.00
2023-11-13T05:20:26.482Z,14.50
2023-11-13T05:22:53.304Z,11.00
2023-11-13T05:25:20.378Z,13.25
2023-11-13T05:27:48.050Z,10.50
2023-11-13T05:30:15.162Z,12.00
2023-11-13T05:32:42.201Z,15.00
2023-11-13T05:35:10.457Z,12.67
2023-11-13T05:37:37.492Z,15.50
2023-11-13T05:40:06.910Z,13.00
2023-11-13T05:42:37.607Z,15.00
2023-11-13T05:45:04.820Z,12.50
2023-11-13T05:47:31.625Z,16.50
2023-11-13T05:49:58.496Z,15.50
2023-11-13T05:52:25.509Z,13.67
2023-11-13T05:54:52.773Z,14.50
2023-11-13T05:57:19.735Z,15.00
2023-11-13T05:59:46.592Z,13.00
2023-11-13T06:02:13.597Z,18.00
2023-11-13T06:04:47.024Z,18.25
2023-11-13T06:07:14.151Z,6.25
2023-11-13T06:09:43.598Z,22.00
2023-11-13T06:12:11.412Z,24.75
2023-11-13T06:14:42.373Z,20.00
2023-11-13T06:17:10.181Z,21.25
2023-11-13T06:19:37.160Z,15.75
2023-11-13T06:22:04.317Z,17.50
2023-11-13T06:24:31.033Z,17.50
2023-11-13T06:26:57.747Z,16.00
2023-11-13T06:29:26.905Z,19.00
2023-11-13T06:31:54.677Z,11.00
2023-11-13T06:34:21.769Z,18.50
2023-11-13T06:36:48.611Z,27.75
2023-11-13T06:39:16.660Z,26.25
2023-11-13T06:41:44.847Z,27.25
2023-11-13T06:44:12.163Z,15.75
2023-11-13T06:46:39.199Z,23.50
2023-11-13T06:49:06.107Z,17.75
2023-11-13T06:51:33.111Z,21.00
2023-11-13T06:53:59.924Z,24.25
2023-11-13T06:56:26.874Z,16.75
2023-11-13T06:58:53.708Z,18.75
2023-11-13T07:01:21.741Z,22.50
2023-11-13T07:03:48.979Z,20.00
2023-11-13T07:06:16.216Z,15.25
2023-11-13T07:08:43.152Z,16.00
2023-11-13T07:11:12.334Z,19.75
2023-11-13T07:13:40.636Z,18.25
2023-11-13T07:16:12.055Z,16.50
2023-11-13T07:18:39.084Z,19.75
2023-11-13T07:21:06.363Z,22.50
2023-11-13T07:23:33.340Z,8.75
2023-11-13T07:26:00.161Z,18.75
2023-11-13T07:28:27.333Z,25.75
2023-11-13T07:30:54.072Z,44.00
2023-11-13T07:33:21.037Z,48.50
2023-11-13T07:35:48.088Z,34.50
2023-11-13T07:38:14.977Z,42.00
2023-11-13T07:40:42.473Z,39.00
2023-11-13T07:43:10.412Z,25.00
2023-11-13T07:45:39.741Z,22.00
2023-11-13T07:48:06.930Z,24.25
2023-11-13T07:50:34.018Z,35.50
2023-11-13T07:53:21.039Z,28.50
2023-11-13T07:55:48.149Z,25.00
2023-11-13T07:58:15.335Z,24.75
2023-11-13T08:00:42.454Z,25.75
2023-11-13T08:03:09.321Z,24.50
2023-11-13T08:05:36.444Z,28.75
2023-11-13T08:08:04.538Z,13.50
2023-11-13T08:10:31.625Z,0.00
2023-11-13T08:12:58.514Z,24.75
2023-11-13T08:15:26.927Z,33.50
2023-11-13T08:17:54.351Z,30.50
2023-11-13T08:20:27.718Z,26.50
2023-11-13T08:22:58.588Z,28.25
2023-11-13T08:25:26.460Z,31.25
2023-11-13T08:27:53.929Z,34.67
2023-11-13T08:30:24.008Z,34.25
2023-11-13T08:32:54.281Z,25.00
2023-11-13T08:35:21.861Z,32.25
2023-11-13T08:37:49.513Z,35.75
2023-11-13T08:40:21.146Z,36.33
2023-11-13T08:42:48.477Z,36.33
2023-11-13T08:45:17.445Z,42.67
2023-11-13T08:47:48.941Z,40.00
2023-11-13T08:50:17.115Z,43.67
2023-11-13T08:52:47.270Z,50.75
2023-11-13T08:55:18.921Z,44.67
2023-11-13T08:57:48.237Z,40.33
2023-11-13T09:00:23.345Z,40.67
2023-11-13T09:02:58.873Z,36.33
2023-11-13T09:05:28.051Z,40.67
2023-11-13T09:07:56.899Z,41.33
2023-11-13T09:10:28.821Z,32.00
2023-11-13T09:13:02.718Z,39.33
2023-11-13T09:15:32.259Z,42.00
2023-11-13T09:18:02.855Z,38.67
2023-11-13T09:20:30.713Z,43.00
2023-11-13T09:23:00.467Z,41.67
2023-11-13T09:25:30.864Z,39.00
2023-11-13T09:27:58.249Z,38.00
2023-11-13T09:30:25.432Z,39.67
2023-11-13T09:32:53.219Z,36.67
2023-11-13T09:35:25.728Z,43.00
2023-11-13T09:37:54.216Z,39.67
2023-11-13T09:40:26.961Z,37.00
2023-11-13T09:42:56.352Z,40.33
2023-11-13T09:45:24.240Z,42.67
2023-11-13T09:48:02.237Z,43.00
2023-11-13T09:50:29.443Z,31.33
2023-11-13T09:53:02.793Z,43.67
2023-11-13T09:55:31.487Z,35.67
2023-11-13T09:58:02.398Z,32.00
2023-11-13T10:00:33.709Z,31.33
2023-11-13T10:03:01.855Z,33.67
2023-11-13T10:05:31.720Z,35.67
2023-11-13T10:07:59.473Z,31.67
2023-11-13T10:10:29.100Z,36.67
2023-11-13T10:12:59.719Z,34.33
2023-11-13T10:15:29.370Z,35.00
2023-11-13T10:18:01.007Z,33.33
2023-11-13T10:20:28.653Z,29.00
2023-11-13T10:23:18.286Z,37.33
2023-11-13T10:25:57.632Z,32.33
2023-11-13T10:28:36.062Z,32.33
2023-11-13T10:31:06.227Z,39.00
2023-11-13T10:33:34.364Z,32.33
2023-11-13T10:36:08.301Z,31.00
2023-11-13T10:38:46.371Z,28.67
2023-11-13T10:41:15.898Z,35.67
2023-11-13T10:43:43.324Z,27.00
2023-11-13T10:46:10.485Z,31.00
2023-11-13T10:48:46.708Z,26.33
2023-11-13T10:51:18.086Z,26.33
2023-11-13T10:53:45.085Z,34.33
2023-11-13T10:56:12.308Z,28.33
2023-11-13T10:58:39.757Z,33.67
2023-11-13T11:01:09.845Z,28.33
2023-11-13T11:03:41.337Z,27.67
2023-11-13T11:06:12.984Z,24.67
2023-11-13T11:08:40.205Z,29.00
2023-11-13T11:11:13.885Z,30.00
2023-11-13T11:13:47.503Z,25.00
2023-11-13T11:16:40.363Z,24.33
2023-11-13T11:19:39.670Z,25.00
2023-11-13T11:22:24.437Z,19.00
2023-11-13T11:25:35.933Z,16.00
2023-11-13T11:28:03.927Z,20.33
2023-11-13T11:30:36.882Z,22.33
2023-11-13T11:33:06.494Z,25.00
2023-11-13T11:35:38.873Z,22.00
2023-11-13T11:38:28.443Z,17.00
2023-11-13T11:40:57.317Z,13.67
2023-11-13T11:43:34.751Z,15.00
2023-11-13T11:46:08.390Z,20.33
2023-11-13T11:48:39.323Z,15.00
2023-11-13T11:51:37.302Z,16.00
2023-11-13T11:54:12.329Z,10.33
2023-11-13T11:56:40.102Z,19.00
2023-11-13T11:59:11.199Z,17.25
2023-11-13T12:01:38.859Z,22.33
2023-11-13T12:04:06.955Z,21.00
2023-11-13T12:06:34.528Z,16.00
2023-11-13T12:09:01.403Z,20.33
2023-11-13T12:11:29.158Z,19.00
2023-11-13T12:13:56.266Z,17.67
2023-11-13T12:16:23.081Z,25.33
2023-11-13T12:18:49.990Z,18.25
2023-11-13T12:21:16.726Z,19.25
2023-11-13T12:23:44.413Z,14.75
2023-11-13T12:26:14.398Z,15.25
2023-11-13T12:28:43.363Z,19.75
2023-11-13T12:31:21.056Z,21.50
2023-11-13T12:33:49.029Z,17.00
2023-11-13T12:36:19.176Z,19.75
2023-11-13T12:38:47.373Z,22.75
2023-11-13T12:41:15.992Z,18.50
2023-11-13T12:43:44.229Z,21.00
2023-11-13T12:46:13.525Z,21.75
2023-11-13T12:48:43.037Z,20.50
2023-11-13T12:51:11.343Z,2.00
2023-11-13T12:53:40.284Z,19.50
2023-11-13T12:56:07.788Z,20.75
2023-11-13T12:58:36.952Z,19.00
2023-11-13T13:01:06.980Z,19.75
2023-11-13T13:03:34.285Z,20.50
2023-11-13T13:06:04.660Z,19.00
2023-11-13T13:08:33.115Z,20.33
2023-11-13T13:11:00.356Z,21.67
2023-11-13T13:13:27.264Z,19.00
2023-11-13T13:15:55.208Z,20.33
2023-11-13T13:18:24.185Z,31.33
2023-11-13T13:20:52.860Z,27.67
2023-11-13T13:23:19.679Z,25.67
2023-11-13T13:25:46.563Z,23.33
2023-11-13T13:28:14.636Z,25.33
2023-11-13T13:30:41.873Z,32.00
2023-11-13T13:33:12.795Z,30.33
2023-11-13T13:35:40.734Z,29.67
2023-11-13T13:38:08.079Z,27.33
2023-11-13T13:40:37.894Z,33.00
2023-11-13T13:43:04.938Z,23.00
2023-11-13T13:45:31.883Z,21.00
2023-11-13T13:47:58.976Z,22.67
2023-11-13T13:50:26.471Z,25.67
2023-11-13T13:52:57.940Z,21.33
2023-11-13T13:55:29.526Z,29.67
2023-11-13T13:58:01.794Z,25.67
2023-11-13T14:00:37.595Z,40.00
2023-11-13T14:03:12.398Z,31.67
2023-11-13T14:05:47.425Z,28.33
2023-11-13T14:08:21.279Z,33.33
2023-11-13T14:10:54.175Z,37.00
2023-11-13T14:13:24.070Z,39.00
2023-11-13T14:18:26.008Z,35.33
2023-11-13T14:20:59.069Z,39.00
2023-11-13T14:23:27.652Z,28.67
2023-11-13T14:25:56.204Z,36.33
2023-11-13T14:28:23.737Z,40.33
2023-11-13T14:30:50.848Z,42.00
2023-11-13T14:33:20.101Z,40.33
2023-11-13T14:35:48.435Z,46.00
2023-11-13T14:38:15.999Z,47.00
2023-11-13T14:40:43.403Z,46.33
2023-11-13T14:43:10.371Z,46.00
2023-11-13T14:45:39.382Z,49.33
2023-11-13T14:48:07.057Z,50.33
2023-11-13T14:50:36.682Z,48.00
2023-11-13T14:53:03.845Z,59.33
2023-11-13T14:55:30.890Z,54.00
2023-11-13T14:57:58.384Z,63.00
2023-11-13T15:00:25.575Z,57.67
2023-11-13T15:02:56.943Z,66.67
2023-11-13T15:05:24.144Z,64.00
2023-11-13T15:07:51.612Z,70.33
2023-11-13T15:10:19.477Z,70.25
2023-11-13T15:12:47.882Z,80.25
2023-11-13T15:15:17.712Z,80.50
2023-11-13T15:17:47.265Z,81.25
2023-11-13T15:20:19.187Z,83.50
2023-11-13T15:25:21.798Z,91.25
2023-11-13T15:27:49.187Z,88.00
2023-11-13T15:30:21.341Z,92.00
2023-11-13T15:32:49.962Z,99.00
2023-11-13T15:35:19.700Z,133.50
2023-11-13T15:37:47.721Z,132.75
2023-11-13T15:40:16.066Z,119.00
2023-11-13T15:42:43.195Z,95.25
2023-11-13T15:45:12.673Z,78.50
2023-11-13T15:47:40.305Z,91.00
2023-11-13T15:50:17.970Z,96.50
2023-11-13T15:52:45.252Z,70.00
2023-11-13T15:55:12.992Z,84.00
2023-11-13T15:57:40.993Z,96.00
2023-11-13T16:00:11.079Z,97.25
2023-11-13T16:02:40.647Z,93.25
2023-11-13T16:05:10.382Z,90.00
2023-11-13T16:07:37.768Z,85.50
2023-11-13T16:10:05.260Z,83.75
2023-11-13T16:12:32.684Z,96.50
2023-11-13T16:15:00.550Z,84.00
2023-11-13T16:17:31.464Z,88.75
2023-11-13T16:19:59.457Z,97.25
2023-11-13T16:22:26.478Z,94.25
2023-11-13T16:24:53.580Z,100.00
2023-11-13T16:27:20.586Z,88.50
2023-11-13T16:29:47.558Z,83.50
2023-11-13T16:32:14.712Z,67.75
2023-11-13T16:34:41.715Z,77.75
2023-11-13T16:37:10.075Z,84.50
2023-11-13T16:39:39.014Z,85.75
2023-11-13T16:42:05.986Z,79.50
2023-11-13T16:44:34.018Z,79.50
2023-11-13T16:47:01.257Z,70.25
2023-11-13T16:49:29.365Z,61.00
2023-11-13T16:51:56.910Z,64.67
2023-11-13T16:54:27.495Z,67.00
2023-11-13T16:56:56.497Z,60.33
2023-11-13T16:59:23.798Z,33.33
2023-11-13T17:01:50.657Z,47.33
2023-11-13T17:04:17.780Z,45.33
2023-11-13T17:06:45.745Z,46.33
2023-11-13T17:09:17.203Z,57.33
2023-11-13T17:11:45.340Z,46.00
2023-11-13T17:14:13.545Z,47.00
2023-11-13T17:16:42.643Z,55.00
2023-11-13T17:19:11.104Z,58.67
2023-11-13T17:21:39.277Z,51.67
2023-11-13T17:24:07.155Z,59.67
2023-11-13T17:26:34.304Z,59.00
2023-11-13T17:29:02.916Z,63.25
2023-11-13T17:31:31.697Z,61.67
2023-11-13T17:33:58.721Z,60.67
2023-11-13T17:36:25.930Z,61.00
2023-11-13T17:38:52.799Z,61.00
2023-11-13T17:41:21.370Z,63.00
2023-11-13T17:43:54.628Z,60.75
2023-11-13T17:46:32.585Z,63.75
2023-11-13T17:49:00.574Z,67.75
2023-11-13T17:51:30.675Z,59.25
2023-11-13T17:53:57.883Z,60.50
2023-11-13T17:56:25.051Z,71.50
2023-11-13T17:58:51.799Z,71.00
2023-11-13T18:01:22.048Z,65.00
2023-11-13T18:03:49.337Z,60.75
2023-11-13T18:06:16.170Z,62.00
2023-11-13T18:08:42.914Z,63.00
2023-11-13T18:11:12.117Z,56.00
2023-11-13T18:13:39.069Z,60.50
2023-11-13T18:16:06.529Z,58.75
2023-11-13T18:18:33.360Z,55.25
2023-11-13T18:21:00.681Z,53.75
2023-11-13T18:23:27.505Z,58.00
2023-11-13T18:25:57.065Z,56.75
2023-11-13T18:28:25.227Z,55.50
2023-11-13T18:30:57.682Z,55.25
2023-11-13T18:33:30.190Z,57.75
2023-11-13T18:36:00.563Z,53.00
2023-11-13T18:38:28.254Z,55.25
2023-11-13T18:40:55.314Z,53.50
2023-11-13T18:43:22.820Z,60.25
2023-11-13T18:45:53.336Z,56.50
2023-11-13T18:48:21.090Z,56.75
2023-11-13T18:50:48.694Z,62.75
2023-11-13T18:53:16.677Z,52.50
2023-11-13T18:55:45.940Z,55.75
2023-11-13T18:58:13.214Z,53.33
2023-11-13T19:00:40.560Z,49.00
2023-11-13T19:03:07.536Z,46.00
2023-11-13T19:05:34.377Z,49.33
2023-11-13T19:08:01.292Z,49.00
2023-11-13T19:10:28.591Z,51.00
2023-11-13T19:12:55.433Z,46.75
2023-11-13T19:15:22.527Z,50.00
2023-11-13T19:17:50.339Z,51.75
2023-11-13T19:20:17.908Z,54.50
2023-11-13T19:22:46.557Z,50.00
2023-11-13T19:25:13.596Z,51.25
2023-11-13T19:27:40.943Z,47.75
2023-11-13T19:30:09.889Z,48.50
2023-11-13T19:32:36.925Z,45.25
2023-11-13T19:35:05.552Z,53.75
2023-11-13T19:37:32.521Z,53.50
2023-11-13T19:39:59.906Z,57.50
2023-11-13T19:42:28.241Z,51.50
2023-11-13T19:44:55.128Z,53.75
2023-11-13T19:47:22.381Z,53.00
2023-11-13T19:49:49.506Z,50.75
2023-11-13T19:52:16.787Z,53.75
2023-11-13T19:54:44.065Z,52.25
2023-11-13T19:57:10.885Z,53.75
2023-11-13T19:59:39.561Z,53.25
2023-11-13T20:02:06.821Z,51.25
2023-11-13T20:04:34.646Z,51.50
2023-11-13T20:07:02.280Z,51.00
2023-11-13T20:09:31.600Z,56.00
2023-11-13T20:12:00.574Z,52.50
2023-11-13T20:14:27.549Z,54.25
2023-11-13T20:16:55.757Z,59.25
2023-11-13T20:19:22.816Z,56.25
2023-11-13T20:21:49.797Z,52.50
2023-11-13T20:24:16.819Z,58.75
2023-11-13T20:26:43.887Z,55.75
2023-11-13T20:29:11.976Z,49.50
2023-11-13T20:31:38.930Z,58.75
2023-11-13T20:34:05.873Z,53.25
2023-11-13T20:36:33.755Z,47.75
2023-11-13T20:39:00.890Z,52.25
2023-11-13T20:41:28.201Z,55.75
2023-11-13T20:43:58.190Z,51.50
2023-11-13T20:46:25.341Z,47.50
2023-11-13T20:48:52.268Z,48.50
2023-11-13T20:51:18.989Z,44.75
2023-11-13T20:53:46.433Z,46.25
2023-11-13T20:56:16.580Z,46.00
2023-11-13T20:58:45.328Z,37.67
2023-11-13T21:01:13.788Z,46.33
2023-11-13T21:03:41.064Z,47.33
2023-11-13T21:06:09.322Z,48.75
2023-11-13T21:08:36.489Z,44.33
2023-11-13T21:11:06.791Z,44.50
2023-11-13T21:13:34.324Z,56.50
2023-11-13T21:16:01.390Z,53.75
2023-11-13T21:18:29.709Z,53.25
2023-11-13T21:21:00.274Z,58.75
2023-11-13T21:23:27.572Z,58.50
2023-11-13T21:26:00.399Z,55.75
2023-11-13T21:28:27.335Z,59.00
2023-11-13T21:30:55.915Z,61.75
2023-11-13T21:33:23.056Z,59.75
2023-11-13T21:35:50.598Z,59.00
2023-11-13T21:38:18.991Z,57.25
2023-11-13T21:40:46.278Z,62.25
2023-11-13T21:43:14.622Z,57.50
2023-11-13T21:45:41.518Z,45.50
2023-11-13T21:48:09.364Z,52.75
2023-11-13T21:50:36.511Z,57.00
2023-11-13T21:53:03.942Z,48.50
2023-11-13T21:55:30.955Z,60.50
2023-11-13T21:57:58.633Z,54.50
2023-11-13T22:00:26.198Z,56.75
2023-11-13T22:02:54.121Z,55.50
2023-11-13T22:05:22.078Z,60.50
2023-11-13T22:07:49.194Z,55.75
2023-11-13T22:10:16.116Z,58.50
2023-11-13T22:12:42.942Z,55.50
2023-11-13T22:15:13.104Z,58.25
2023-11-13T22:17:40.203Z,56.25
2023-11-13T22:20:08.589Z,52.00
2023-11-13T22:22:36.972Z,46.50
2023-11-13T22:25:04.348Z,56.00
2023-11-13T22:27:31.167Z,40.00
2023-11-13T22:29:57.913Z,58.25
2023-11-13T22:32:24.706Z,54.50
2023-11-13T22:34:51.674Z,59.50
2023-11-13T22:37:18.788Z,56.00
2023-11-13T22:39:46.058Z,52.25
2023-11-13T22:42:12.760Z,60.75
2023-11-13T22:44:39.486Z,55.25
2023-11-13T22:47:06.514Z,60.50
2023-11-13T22:49:33.310Z,58.25
2023-11-13T22:52:03.454Z,57.25
2023-11-13T22:54:30.838Z,61.75
2023-11-13T22:56:57.772Z,60.25
2023-11-13T22:59:24.926Z,57.25
2023-11-13T23:01:54.243Z,55.25
2023-11-13T23:04:24.145Z,57.25
2023-11-13T23:06:50.915Z,54.00
2023-11-13T23:09:17.755Z,60.25
2023-11-13T23:11:44.553Z,57.25
2023-11-13T23:14:12.049Z,51.50
2023-11-13T23:16:39.237Z,54.00
2023-11-13T23:19:06.068Z,60.00
2023-11-13T23:21:32.988Z,59.25
2023-11-13T23:23:59.848Z,52.25
2023-11-13T23:26:26.754Z,50.75
2023-11-13T23:28:53.580Z,54.00
2023-11-13T23:31:22.114Z,51.25
2023-11-13T23:33:49.665Z,54.75
2023-11-13T23:36:16.598Z,52.50
2023-11-13T23:38:44.127Z,54.25
2023-11-13T23:41:10.989Z,49.75
2023-11-13T23:43:38.569Z,50.50
2023-11-13T23:46:06.113Z,24.75
2023-11-13T23:48:33.777Z,48.50
2023-11-13T23:51:00.635Z,44.00
2023-11-13T23:53:27.509Z,41.25
2023-11-13T23:55:55.105Z,48.50
2023-11-13T23:58:21.995Z,48.00
